createdAt,value
2018-12-31T00:01:46.824Z,18.67
2018-12-31T00:04:35.371Z,19.20
2018-12-31T00:07:45.702Z,21.27
2018-12-31T00:10:56.013Z,19.17
2018-12-31T00:13:44.581Z,19.10
2018-12-31T00:16:33.620Z,20.97
2018-12-31T00:19:21.792Z,18.43
2018-12-31T00:22:09.996Z,16.43
2018-12-31T00:24:58.456Z,18.53
2018-12-31T00:27:50.813Z,18.37
2018-12-31T00:30:39.304Z,18.97
2018-12-31T00:33:28.043Z,20.37
2018-12-31T00:36:16.414Z,23.83
2018-12-31T00:39:06.791Z,18.63
2018-12-31T00:41:56.179Z,18.30
2018-12-31T00:44:45.195Z,23.43
2018-12-31T00:47:33.762Z,17.13
2018-12-31T00:50:22.594Z,20.90
2018-12-31T00:53:10.651Z,20.20
2018-12-31T00:55:59.027Z,18.80
2018-12-31T00:58:48.237Z,20.80
2018-12-31T01:01:36.636Z,19.53
2018-12-31T01:04:26.019Z,20.17
2018-12-31T01:07:14.109Z,16.63
2018-12-31T01:10:02.424Z,17.63
2018-12-31T01:12:51.527Z,20.70
2018-12-31T01:15:39.738Z,18.83
2018-12-31T01:18:27.719Z,18.03
2018-12-31T01:21:15.577Z,22.63
2018-12-31T01:24:04.514Z,23.07
2018-12-31T01:26:52.940Z,22.07
2018-12-31T01:29:41.499Z,19.87
2018-12-31T01:32:29.971Z,21.77
2018-12-31T01:35:17.633Z,22.73
2018-12-31T01:38:06.354Z,20.10
2018-12-31T01:40:55.635Z,18.77
2018-12-31T01:43:44.391Z,21.30
2018-12-31T01:46:32.878Z,20.20
2018-12-31T01:49:21.581Z,19.13
2018-12-31T01:52:09.968Z,21.00
2018-12-31T01:54:58.289Z,19.20
2018-12-31T01:57:47.129Z,21.50
2018-12-31T02:00:35.399Z,23.50
2018-12-31T02:03:24.533Z,24.50
2018-12-31T02:06:13.225Z,21.77
2018-12-31T02:09:01.972Z,24.57
2018-12-31T02:11:50.384Z,19.53
2018-12-31T02:14:39.144Z,22.07
2018-12-31T02:17:28.034Z,24.07
2018-12-31T02:20:16.702Z,21.50
2018-12-31T02:23:04.952Z,23.67
2018-12-31T02:25:52.965Z,23.27
2018-12-31T02:28:41.387Z,25.10
2018-12-31T02:31:29.561Z,19.70
2018-12-31T02:34:17.941Z,21.77
2018-12-31T02:37:06.165Z,20.90
2018-12-31T02:39:54.069Z,20.03
2018-12-31T02:42:42.834Z,20.80
2018-12-31T02:45:30.773Z,19.90
2018-12-31T02:48:19.135Z,19.57
2018-12-31T02:51:08.154Z,18.27
2018-12-31T02:53:56.386Z,18.70
2018-12-31T02:56:45.344Z,19.87
2018-12-31T02:59:34.587Z,17.77
2018-12-31T03:02:23.637Z,19.03
2018-12-31T03:05:12.697Z,18.77
2018-12-31T03:08:01.375Z,17.30
2018-12-31T03:10:49.461Z,17.87
2018-12-31T03:13:39.138Z,16.17
2018-12-31T03:16:27.787Z,16.93
2018-12-31T03:19:16.650Z,19.20
2018-12-31T03:22:05.069Z,17.23
2018-12-31T03:24:53.676Z,18.73
2018-12-31T03:27:42.561Z,17.87
2018-12-31T03:30:30.918Z,17.73
2018-12-31T03:33:18.912Z,18.73
2018-12-31T03:36:07.569Z,22.53
2018-12-31T03:38:56.636Z,17.53
2018-12-31T03:41:44.758Z,17.20
2018-12-31T03:44:34.019Z,16.73
2018-12-31T03:47:23.017Z,17.10
2018-12-31T03:50:11.965Z,18.37
2018-12-31T03:53:00.921Z,16.87
2018-12-31T03:55:49.872Z,20.07
2018-12-31T03:58:38.786Z,17.90
2018-12-31T04:01:27.430Z,16.90
2018-12-31T04:04:16.089Z,14.87
2018-12-31T04:07:04.789Z,15.43
2018-12-31T04:09:53.373Z,16.17
2018-12-31T04:12:41.852Z,16.73
2018-12-31T04:15:29.952Z,16.20
2018-12-31T04:18:18.276Z,16.40
2018-12-31T04:21:06.942Z,16.27
2018-12-31T04:23:55.918Z,14.37
2018-12-31T04:26:44.446Z,16.03
2018-12-31T04:29:33.077Z,15.50
2018-12-31T04:32:21.832Z,16.43
2018-12-31T04:35:10.130Z,14.83
2018-12-31T04:37:58.594Z,14.53
2018-12-31T04:40:46.489Z,14.17
2018-12-31T04:43:35.173Z,12.37
2018-12-31T04:46:23.520Z,13.20
2018-12-31T04:49:11.866Z,13.23
2018-12-31T04:51:59.908Z,12.70
2018-12-31T04:54:48.289Z,11.70
2018-12-31T04:57:37.127Z,11.43
2018-12-31T05:00:25.302Z,11.13
2018-12-31T05:03:14.052Z,11.47
2018-12-31T05:06:03.022Z,11.17
2018-12-31T05:08:51.153Z,11.17
2018-12-31T05:11:39.405Z,10.43
2018-12-31T05:14:28.173Z,11.17
2018-12-31T05:17:16.679Z,9.90
2018-12-31T05:20:05.545Z,10.33
2018-12-31T05:22:53.872Z,10.97
2018-12-31T05:25:43.355Z,10.53
2018-12-31T05:28:31.268Z,10.87
2018-12-31T05:31:19.714Z,10.73
2018-12-31T05:34:08.814Z,9.60
2018-12-31T05:36:57.495Z,9.90
2018-12-31T05:39:45.727Z,10.23
2018-12-31T05:42:33.631Z,10.30
2018-12-31T05:45:22.360Z,10.17
2018-12-31T05:48:10.816Z,10.13
2018-12-31T05:50:59.013Z,9.73
2018-12-31T05:53:46.607Z,9.30
2018-12-31T05:56:35.739Z,9.30
2018-12-31T05:59:23.927Z,9.17
2018-12-31T06:02:12.097Z,8.77
2018-12-31T06:05:00.551Z,9.00
2018-12-31T06:07:50.087Z,8.90
2018-12-31T06:10:39.281Z,8.70
2018-12-31T06:13:27.371Z,9.13
2018-12-31T06:16:15.971Z,8.27
2018-12-31T06:19:04.273Z,8.20
2018-12-31T06:21:53.294Z,7.97
2018-12-31T06:24:41.799Z,8.27
2018-12-31T06:27:30.154Z,8.00
2018-12-31T06:30:18.091Z,8.17
2018-12-31T06:33:06.165Z,8.13
2018-12-31T06:35:54.732Z,8.10
2018-12-31T06:38:43.840Z,8.00
2018-12-31T06:41:32.071Z,7.87
2018-12-31T06:44:20.019Z,7.93
2018-12-31T06:47:08.653Z,8.20
2018-12-31T06:49:56.708Z,7.77
2018-12-31T06:52:45.207Z,7.40
2018-12-31T06:55:33.312Z,7.80
2018-12-31T06:58:21.600Z,8.30
2018-12-31T07:01:09.983Z,8.47
2018-12-31T07:03:58.152Z,8.20
2018-12-31T07:06:46.396Z,7.90
2018-12-31T07:09:34.567Z,8.70
2018-12-31T07:12:23.070Z,8.30
2018-12-31T07:15:10.714Z,7.60
2018-12-31T07:17:58.658Z,7.93
2018-12-31T07:20:47.363Z,7.47
2018-12-31T07:23:36.213Z,7.57
2018-12-31T07:26:24.078Z,7.10
2018-12-31T07:29:12.515Z,7.80
2018-12-31T07:32:01.400Z,7.60
2018-12-31T07:34:50.514Z,7.00
2018-12-31T07:37:38.905Z,7.37
2018-12-31T07:40:27.214Z,7.63
2018-12-31T07:43:15.893Z,7.27
2018-12-31T07:46:04.479Z,7.67
2018-12-31T07:48:52.821Z,7.60
2018-12-31T07:51:42.032Z,7.20
2018-12-31T07:54:30.895Z,7.90
2018-12-31T07:57:18.917Z,7.50
2018-12-31T08:00:08.074Z,8.47
2018-12-31T08:02:56.932Z,7.70
2018-12-31T08:05:46.303Z,7.80
2018-12-31T08:08:35.242Z,8.00
2018-12-31T08:11:24.315Z,8.50
2018-12-31T08:14:12.771Z,8.60
2018-12-31T08:17:01.271Z,7.93
2018-12-31T08:19:50.849Z,7.10
2018-12-31T08:22:39.741Z,7.40
2018-12-31T08:25:28.675Z,7.30
2018-12-31T08:28:20.589Z,7.13
2018-12-31T08:31:09.430Z,7.60
2018-12-31T08:34:00.025Z,7.40
2018-12-31T08:36:48.441Z,7.20
2018-12-31T08:39:37.006Z,7.43
2018-12-31T08:42:25.726Z,7.57
2018-12-31T08:45:14.177Z,7.43
2018-12-31T08:48:03.003Z,7.80
2018-12-31T08:50:51.473Z,8.30
2018-12-31T08:53:39.916Z,7.70
2018-12-31T08:56:28.588Z,8.30
2018-12-31T08:59:18.306Z,8.27
2018-12-31T09:02:06.576Z,7.80
2018-12-31T09:04:55.398Z,7.70
2018-12-31T09:07:43.632Z,7.47
2018-12-31T09:10:32.144Z,7.40
2018-12-31T09:13:22.024Z,7.57
2018-12-31T09:16:10.981Z,7.70
2018-12-31T09:19:00.195Z,7.47
2018-12-31T09:21:49.025Z,7.20
2018-12-31T09:24:44.513Z,7.13
2018-12-31T09:27:27.878Z,7.43
2018-12-31T09:30:16.526Z,7.40
2018-12-31T09:33:05.561Z,7.07
2018-12-31T09:35:54.145Z,7.50
2018-12-31T09:38:43.300Z,7.90
2018-12-31T09:41:32.364Z,7.17
2018-12-31T09:44:21.389Z,6.97
2018-12-31T09:47:09.769Z,6.70
2018-12-31T09:49:58.154Z,7.10
2018-12-31T09:52:48.084Z,6.60
2018-12-31T09:55:36.361Z,6.63
2018-12-31T09:58:24.617Z,6.30
2018-12-31T10:01:13.112Z,6.70
2018-12-31T10:04:01.211Z,6.90
2018-12-31T10:06:49.130Z,6.50
2018-12-31T10:09:37.589Z,6.60
2018-12-31T10:12:25.732Z,6.50
2018-12-31T10:15:14.855Z,6.20
2018-12-31T10:18:03.328Z,7.07
2018-12-31T10:20:52.360Z,6.70
2018-12-31T10:23:41.195Z,6.53
2018-12-31T10:26:30.001Z,6.53
2018-12-31T10:29:18.346Z,6.60
2018-12-31T10:32:06.401Z,6.20
2018-12-31T10:34:54.561Z,6.10
2018-12-31T10:37:43.851Z,6.20
2018-12-31T10:40:32.230Z,6.10
2018-12-31T10:43:20.875Z,5.77
2018-12-31T10:46:09.203Z,5.90
2018-12-31T10:48:57.708Z,6.03
2018-12-31T10:51:46.060Z,6.60
2018-12-31T10:54:34.926Z,6.87
2018-12-31T10:57:23.412Z,7.70
2018-12-31T11:00:12.772Z,7.60
2018-12-31T11:03:01.319Z,6.33
2018-12-31T11:05:49.210Z,6.90
2018-12-31T11:08:38.139Z,6.40
2018-12-31T11:11:26.653Z,6.40
2018-12-31T11:14:15.376Z,6.63
2018-12-31T11:17:03.526Z,6.30
2018-12-31T11:19:52.101Z,5.90
2018-12-31T11:22:40.245Z,6.00
2018-12-31T11:25:29.381Z,5.67
2018-12-31T11:28:18.006Z,6.50
2018-12-31T11:31:06.953Z,5.50
2018-12-31T11:33:55.493Z,6.30
2018-12-31T11:36:44.233Z,6.40
2018-12-31T11:39:37.002Z,6.77
2018-12-31T11:42:25.561Z,6.60
2018-12-31T11:45:14.464Z,5.67
2018-12-31T11:48:05.111Z,6.90
2018-12-31T11:50:54.816Z,6.57
2018-12-31T11:53:43.187Z,9.00
2018-12-31T11:56:31.690Z,6.90
2018-12-31T11:59:21.465Z,8.70
2018-12-31T12:02:10.704Z,8.50
2018-12-31T12:04:59.146Z,6.13
2018-12-31T12:07:48.019Z,6.23
2018-12-31T12:10:36.510Z,6.60
2018-12-31T12:13:25.652Z,6.80
2018-12-31T12:16:14.723Z,8.57
2018-12-31T12:19:02.748Z,8.63
2018-12-31T12:21:51.060Z,6.83
2018-12-31T12:24:40.705Z,8.73
2018-12-31T12:27:30.822Z,7.30
2018-12-31T12:30:20.255Z,7.17
2018-12-31T12:33:09.438Z,7.07
2018-12-31T12:35:57.387Z,6.90
2018-12-31T12:38:45.793Z,7.80
2018-12-31T12:41:35.072Z,7.47
2018-12-31T12:44:23.771Z,10.83
2018-12-31T12:47:13.151Z,8.37
2018-12-31T12:50:02.188Z,6.87
2018-12-31T12:52:50.185Z,6.90
2018-12-31T12:55:38.419Z,7.50
2018-12-31T12:58:26.423Z,7.30
2018-12-31T13:01:15.260Z,7.20
2018-12-31T13:04:04.003Z,7.20
2018-12-31T13:06:52.548Z,8.10
2018-12-31T13:09:41.831Z,8.00
2018-12-31T13:12:32.325Z,7.40
2018-12-31T13:15:21.531Z,10.37
2018-12-31T13:18:10.503Z,9.60
2018-12-31T13:20:59.545Z,9.43
2018-12-31T13:23:48.118Z,8.57
2018-12-31T13:26:43.414Z,8.33
2018-12-31T13:29:33.506Z,8.13
2018-12-31T13:32:22.547Z,8.20
2018-12-31T13:35:10.449Z,7.90
2018-12-31T13:37:58.296Z,8.00
2018-12-31T13:40:47.224Z,8.27
2018-12-31T13:43:43.917Z,8.00
2018-12-31T13:46:32.624Z,9.70
2018-12-31T13:49:21.908Z,9.83
2018-12-31T13:52:10.606Z,8.83
2018-12-31T13:54:58.877Z,8.43
2018-12-31T13:57:47.187Z,9.13
2018-12-31T14:00:35.532Z,9.37
2018-12-31T14:03:23.444Z,9.27
2018-12-31T14:06:12.574Z,9.13
2018-12-31T14:09:01.262Z,9.13
2018-12-31T14:11:49.875Z,8.93
2018-12-31T14:14:38.852Z,9.90
2018-12-31T14:17:27.742Z,9.20
2018-12-31T14:20:15.999Z,9.50
2018-12-31T14:23:04.727Z,9.80
2018-12-31T14:25:53.679Z,11.40
2018-12-31T14:28:41.940Z,10.10
2018-12-31T14:31:30.176Z,10.37
2018-12-31T14:34:18.472Z,10.67
2018-12-31T14:37:06.113Z,10.70
2018-12-31T14:39:54.778Z,11.47
2018-12-31T14:42:43.365Z,10.23
2018-12-31T14:45:32.609Z,11.03
2018-12-31T14:48:21.596Z,11.80
2018-12-31T14:51:10.732Z,12.47
2018-12-31T14:53:59.725Z,12.57
2018-12-31T14:56:48.138Z,12.50
2018-12-31T14:59:36.091Z,12.30
2018-12-31T15:02:24.091Z,13.50
2018-12-31T15:05:12.105Z,12.03
2018-12-31T15:08:00.338Z,12.73
2018-12-31T15:10:48.330Z,14.03
2018-12-31T15:13:37.841Z,19.00
2018-12-31T15:16:26.276Z,13.57
2018-12-31T15:19:18.685Z,12.80
2018-12-31T15:22:07.154Z,12.70
2018-12-31T15:24:55.630Z,13.00
2018-12-31T15:27:43.895Z,13.73
2018-12-31T15:30:32.709Z,14.13
2018-12-31T15:33:21.671Z,14.13
2018-12-31T15:36:10.319Z,17.53
2018-12-31T15:38:58.183Z,15.70
2018-12-31T15:41:46.917Z,17.20
2018-12-31T15:44:35.772Z,16.20
2018-12-31T15:47:24.379Z,15.77
2018-12-31T15:50:12.555Z,14.30
2018-12-31T15:53:01.355Z,15.77
2018-12-31T15:55:49.499Z,18.63
2018-12-31T15:58:38.017Z,16.80
2018-12-31T16:01:27.394Z,16.20
2018-12-31T16:04:15.701Z,16.07
2018-12-31T16:07:04.481Z,16.20
2018-12-31T16:09:53.741Z,59.93
2018-12-31T16:12:42.922Z,35.40
2018-12-31T16:15:32.093Z,23.07
2018-12-31T16:18:20.741Z,17.23
2018-12-31T16:21:09.191Z,18.10
2018-12-31T16:23:57.886Z,19.97
2018-12-31T16:26:46.869Z,25.63
2018-12-31T16:29:35.222Z,22.50
2018-12-31T16:32:24.651Z,19.70
2018-12-31T16:35:13.786Z,19.63
2018-12-31T16:38:02.663Z,20.43
2018-12-31T16:40:51.311Z,21.20
2018-12-31T16:43:40.265Z,19.63
2018-12-31T16:46:28.536Z,22.47
2018-12-31T16:49:18.156Z,20.17
2018-12-31T16:52:07.238Z,21.10
2018-12-31T16:54:56.186Z,19.77
2018-12-31T16:57:44.173Z,21.80
2018-12-31T17:00:34.570Z,25.00
2018-12-31T17:03:25.674Z,22.50
2018-12-31T17:06:14.444Z,21.83
2018-12-31T17:09:03.417Z,21.87
2018-12-31T17:11:52.045Z,23.27
2018-12-31T17:14:40.315Z,28.50
2018-12-31T17:17:28.479Z,28.13
2018-12-31T17:20:16.580Z,34.93
2018-12-31T17:23:04.732Z,23.57
2018-12-31T17:25:52.975Z,23.77
2018-12-31T17:28:41.523Z,22.40
2018-12-31T17:31:29.750Z,24.37
2018-12-31T17:34:18.289Z,24.73
2018-12-31T17:37:07.247Z,26.13
2018-12-31T17:39:55.659Z,25.47
2018-12-31T17:42:44.744Z,28.03
2018-12-31T17:45:33.289Z,26.80
2018-12-31T17:48:21.952Z,27.57
2018-12-31T17:51:10.125Z,27.33
2018-12-31T17:53:58.524Z,27.90
2018-12-31T17:56:46.787Z,28.87
2018-12-31T17:59:35.194Z,27.93
2018-12-31T18:02:23.781Z,29.23
2018-12-31T18:05:12.922Z,30.03
2018-12-31T18:08:02.052Z,29.57
2018-12-31T18:10:51.487Z,28.33
2018-12-31T18:13:41.090Z,30.30
2018-12-31T18:16:29.669Z,29.03
2018-12-31T18:19:18.763Z,32.13
2018-12-31T18:22:07.553Z,34.50
2018-12-31T18:24:59.426Z,33.50
2018-12-31T18:27:48.498Z,33.00
2018-12-31T18:30:36.516Z,31.60
2018-12-31T18:33:25.336Z,32.43
2018-12-31T18:36:13.778Z,33.77
2018-12-31T18:39:01.763Z,31.47
2018-12-31T18:41:49.478Z,36.77
2018-12-31T18:44:37.835Z,34.00
2018-12-31T18:47:27.010Z,32.80
2018-12-31T18:50:16.346Z,36.97
2018-12-31T18:53:05.181Z,35.33
2018-12-31T18:55:54.322Z,37.17
2018-12-31T18:58:44.010Z,38.10
2018-12-31T19:01:34.214Z,38.27
2018-12-31T19:04:23.063Z,51.43
2018-12-31T19:07:12.779Z,38.43
2018-12-31T19:10:01.965Z,39.33
2018-12-31T19:12:50.543Z,36.93
2018-12-31T19:15:39.013Z,37.93
2018-12-31T19:18:28.313Z,37.47
2018-12-31T19:21:16.876Z,39.97
2018-12-31T19:24:06.238Z,35.67
2018-12-31T19:26:54.556Z,39.53
2018-12-31T19:29:43.733Z,35.37
2018-12-31T19:32:32.553Z,35.30
2018-12-31T19:35:21.618Z,33.30
2018-12-31T19:38:10.161Z,35.57
2018-12-31T19:40:59.574Z,37.03
2018-12-31T19:43:48.608Z,38.60
2018-12-31T19:46:37.007Z,38.40
2018-12-31T19:49:25.639Z,40.93
2018-12-31T19:52:13.954Z,40.77
2018-12-31T19:55:07.109Z,38.27
2018-12-31T19:57:58.269Z,40.43
2018-12-31T20:00:48.137Z,38.87
2018-12-31T20:03:37.085Z,43.20
2018-12-31T20:06:25.559Z,38.53
2018-12-31T20:09:14.064Z,40.93
2018-12-31T20:12:03.274Z,39.20
2018-12-31T20:14:52.353Z,40.53
2018-12-31T20:20:21.737Z,42.90
2018-12-31T20:23:13.020Z,41.87
2018-12-31T20:26:02.049Z,49.53
2018-12-31T20:28:50.136Z,49.07
2018-12-31T20:31:38.672Z,46.67
2018-12-31T20:34:28.535Z,47.73
2018-12-31T20:37:17.130Z,47.47
2018-12-31T20:40:06.733Z,43.60
2018-12-31T20:42:55.837Z,44.40
2018-12-31T20:45:44.645Z,54.87
2018-12-31T20:48:32.789Z,69.17
2018-12-31T20:51:21.781Z,61.50
2018-12-31T20:54:10.918Z,46.00
2018-12-31T20:56:59.191Z,46.97
2018-12-31T20:59:47.867Z,44.83
2018-12-31T21:02:36.913Z,47.53
2018-12-31T21:05:25.479Z,55.33
2018-12-31T21:08:13.704Z,56.90
2018-12-31T21:11:02.747Z,54.93
2018-12-31T21:13:51.114Z,53.90
2018-12-31T21:16:40.259Z,53.93
2018-12-31T21:19:29.014Z,49.43
2018-12-31T21:22:17.311Z,50.03
2018-12-31T21:25:05.646Z,49.67
2018-12-31T21:27:53.699Z,58.73
2018-12-31T21:30:41.911Z,54.87
2018-12-31T21:33:32.626Z,53.37
2018-12-31T21:36:21.451Z,53.53
2018-12-31T21:39:10.296Z,48.43
2018-12-31T21:41:59.468Z,59.63
2018-12-31T21:44:48.693Z,52.77
2018-12-31T21:47:38.088Z,58.90
2018-12-31T21:50:28.186Z,53.33
2018-12-31T21:53:16.904Z,67.10
2018-12-31T21:56:05.573Z,60.97
2018-12-31T21:58:54.309Z,64.53
2018-12-31T22:01:42.632Z,57.80
2018-12-31T22:04:31.709Z,51.93
2018-12-31T22:07:20.329Z,58.80
2018-12-31T22:10:08.882Z,70.37
2018-12-31T22:12:57.455Z,64.67
2018-12-31T22:15:45.922Z,54.03
2018-12-31T22:18:34.529Z,56.83
2018-12-31T22:21:23.318Z,62.37
2018-12-31T22:24:12.937Z,58.10
2018-12-31T22:27:02.080Z,52.90
2018-12-31T22:29:50.386Z,46.53
2018-12-31T22:32:39.345Z,46.70
2018-12-31T22:35:27.446Z,43.20
2018-12-31T22:38:16.772Z,44.13
2018-12-31T22:41:05.602Z,45.03
2018-12-31T22:43:54.175Z,46.47
2018-12-31T22:46:42.523Z,55.83
2018-12-31T22:49:31.244Z,50.33
2018-12-31T22:52:20.355Z,55.30
2018-12-31T22:55:08.670Z,81.20
2018-12-31T22:57:57.055Z,238.07
2018-12-31T23:00:45.278Z,320.20
2018-12-31T23:03:33.817Z,415.00
2018-12-31T23:06:23.393Z,553.17
2018-12-31T23:09:14.740Z,1076.30
2018-12-31T23:12:03.709Z,961.13
2018-12-31T23:14:53.084Z,932.60
2018-12-31T23:17:41.713Z,1037.20
2018-12-31T23:20:29.622Z,1020.50
2018-12-31T23:23:19.117Z,1031.30
2018-12-31T23:26:08.392Z,932.63
2018-12-31T23:28:58.720Z,929.30
2018-12-31T23:31:47.080Z,881.20
2018-12-31T23:34:35.920Z,839.17
2018-12-31T23:37:23.822Z,828.37
2018-12-31T23:40:12.094Z,851.67
2018-12-31T23:43:06.283Z,861.63
2018-12-31T23:45:51.214Z,811.60
2018-12-31T23:48:39.428Z,797.23
2018-12-31T23:51:27.954Z,833.13
2018-12-31T23:54:19.951Z,836.17
2018-12-31T23:57:08.723Z,814.07
2018-12-31T23:59:57.368Z,753.47
